Latest Weather Observations for Truscott

IDD60801

Issued at 9:05 pm CST Monday 20 October 2014 (issued every 30 minutes, with the page automatically refreshed every 10 minutes)

About weather observations | Map of weather stations | Latest weather observations for NT | Other Formats
Station Details ID: 001020 Name: TRUSCOTT Lat: -14.09 Lon: 126.39 Height: 51.0 m
Data from the previous 72 hours. | See also: Recent months at Truscott
Date/Time
CST
Temp
°C
App
Temp
°C
Dew
Point
Rel
Hum
%
Delta-T
°C
Wind Press
QNH
hPa
Press
MSL
hPa
Rain
since 9 am
mm
Dir
 
Spd
km/h
Gust
km/h
Spd
kts
Gust
kts
20/09:00pm 28.2 31.4 22.4 71 3.9 WNW 9 13 5 7 1013.4 - 0.0
20/08:30pm 28.2 30.7 22.4 71 3.9 WNW 13 17 7 9 1013.1 - 0.0
20/08:00pm 28.2 31.1 22.4 71 3.9 NW 11 15 6 8 1012.9 - 0.0
20/07:30pm 28.3 31.1 22.3 70 4.1 NW 11 19 6 10 1012.7 1012.1 0.0
20/07:00pm 28.6 30.8 21.9 67 4.5 NW 13 19 7 10 1012.2 - 0.0
20/06:30pm 29.1 30.9 21.8 64 4.9 NNW 15 20 8 11 1011.8 - 0.0
20/06:00pm 30.2 31.2 20.2 55 6.6 NW 15 24 8 13 1011.4 - 0.0
20/05:30pm 30.5 30.8 19.5 51 7.2 NNW 17 26 9 14 1011.1 - 0.0
20/05:00pm 31.8 32.1 18.0 43 8.9 NNW 13 24 7 13 1010.9 - 0.0
20/04:30pm 32.3 31.9 18.8 44 8.8 NNW 19 30 10 16 1011.0 1010.4 0.0
20/04:00pm 32.1 32.4 19.7 48 8.2 NNW 17 26 9 14 1011.0 - 0.0
20/03:30pm 32.0 32.3 20.3 50 7.8 NNW 19 28 10 15 1011.1 - 0.0
20/03:00pm 32.0 32.3 20.3 50 7.8 NNW 19 28 10 15 1011.3 - 0.0
20/02:30pm 32.2 32.8 21.1 52 7.5 NW 19 28 10 15 1011.6 - 0.0
20/02:00pm 32.4 33.5 21.3 52 7.5 NW 17 26 9 14 1012.4 - 0.0
20/01:30pm 32.1 33.5 21.0 52 7.5 WNW 15 24 8 13 1012.9 1012.3 0.0
20/01:00pm 31.9 33.0 20.5 51 7.6 WNW 15 26 8 14 1013.5 - 0.0
20/12:30pm 32.5 33.1 21.0 50 7.7 W 19 26 10 14 1013.9 - 0.0
20/12:00pm 32.3 33.1 19.9 48 8.2 W 15 24 8 13 1014.3 - 0.0
20/11:30am 31.4 32.3 20.0 50 7.5 WNW 15 22 8 12 1014.7 - 0.0
20/11:00am 31.1 31.5 19.8 51 7.4 W 17 22 9 12 1015.1 - 0.0
20/10:30am 31.0 32.4 20.3 53 7.1 W 13 19 7 10 1015.5 1015.0 0.0
20/10:00am 30.4 32.2 20.3 54 6.7 NW 11 20 6 11 1015.6 - 0.0
20/09:30am 29.0 31.2 20.4 59 5.7 NW 9 13 5 7 1015.9 - 0.0
20/09:00am 29.6 31.7 21.0 60 5.7 W 11 15 6 8 1015.4 - 0.0
20/08:30am 28.7 31.7 22.0 67 4.5 WNW 9 19 5 10 1015.0 - 0.0
20/08:00am 28.1 31.7 22.3 70 3.9 W 7 11 4 6 1014.7 - 0.0
20/07:30am 26.1 30.2 23.0 83 2.1 NW 6 9 3 5 1014.2 1013.6 0.0
20/07:00am 24.0 28.9 22.3 90 1.1 CALM 0 0 0 0 1013.9 - 0.0
20/06:30am 23.8 27.9 22.2 91 1.1 WNW 4 7 2 4 1013.5 - 0.0
20/06:00am 23.6 27.9 21.9 90 1.1 NW 2 9 1 5 1013.1 - 0.0
20/05:30am 24.4 28.7 22.7 90 1.1 W 4 9 2 5 1012.6 - 0.0
20/05:00am 23.9 28.6 22.0 89 1.3 CALM 0 7 0 4 1012.4 - 0.0
20/04:30am 24.1 29.0 22.4 90 1.1 CALM 0 0 0 0 1012.2 1011.6 0.0
20/04:00am 24.0 28.8 22.1 89 1.3 CALM 0 0 0 0 1012.0 - 0.0
20/03:30am 24.3 28.6 22.0 87 1.5 SW 2 6 1 3 1011.9 - 0.0
20/03:00am 24.6 28.4 21.7 84 1.9 SW 4 6 2 3 1012.0 - 0.0
20/02:30am 25.8 29.7 22.5 82 2.2 WSW 6 7 3 4 1012.1 - 0.0
20/02:00am 25.9 29.7 22.8 83 2.1 W 7 11 4 6 1012.3 - 0.0
20/01:30am 26.2 30.1 22.9 82 2.2 WSW 7 13 4 7 1012.7 1012.1 0.0
20/01:00am 26.2 29.6 22.7 81 2.4 W 9 13 5 7 1013.0 - 0.0
20/12:30am 26.1 29.7 22.4 80 2.5 W 7 11 4 6 1013.2 - 0.0
20/12:00am 26.4 30.1 22.5 79 2.6 WSW 7 11 4 6 1013.3 - 0.0
 
Date/Time
CST
Temp
°C
App
Temp
°C
Dew
Point
Rel
Hum
%
Delta-T
°C
Wind Press
QNH
hPa
Press
MSL
hPa
Rain
since 9 am
mm
Dir
 
Spd
km/h
Gust
km/h
Spd
kts
Gust
kts
19/11:30pm 26.6 29.8 22.4 78 2.8 WSW 9 11 5 6 1013.5 - 0.0
19/11:00pm 26.8 30.0 22.4 77 3.0 WSW 9 11 5 6 1013.8 - 0.0
19/10:30pm 27.1 30.5 22.7 77 3.0 WSW 9 13 5 7 1013.7 1013.1 0.0
19/10:00pm 27.2 30.7 22.8 77 3.0 W 9 13 5 7 1013.5 - 0.0
19/09:30pm 26.9 30.7 22.7 78 2.8 NW 7 9 4 5 1013.3 - 0.0
19/09:00pm 27.0 30.5 22.8 78 2.9 NW 9 13 5 7 1013.1 - 0.0
19/08:30pm 27.0 30.6 22.4 76 3.1 NW 7 11 4 6 1012.8 - 0.0
19/08:00pm 27.3 30.7 22.7 76 3.1 NW 9 15 5 8 1012.4 - 0.0
19/07:30pm 27.6 30.4 22.3 73 3.6 NNW 11 15 6 8 1012.0 1011.4 0.0
19/07:00pm 27.9 30.6 22.1 70 3.9 NNW 11 19 6 10 1011.7 - 0.0
19/06:30pm 28.6 30.3 21.6 66 4.7 NNW 15 20 8 11 1011.3 - 0.0
19/06:00pm 29.0 30.1 21.2 62 5.2 N 17 24 9 13 1011.0 - 0.0
19/05:30pm 29.5 29.9 20.6 58 5.9 N 19 28 10 15 1010.8 - 0.0
19/05:00pm 29.7 30.0 20.5 57 6.1 N 19 30 10 16 1010.7 - 0.0
19/04:30pm 30.7 30.8 20.0 52 7.1 N 19 26 10 14 1010.7 1010.1 0.0
19/04:00pm 30.9 30.6 19.6 51 7.4 N 20 30 11 16 1010.8 - 0.0
19/03:30pm 31.5 31.0 19.2 48 8.0 N 20 28 11 15 1010.9 - 0.0
19/03:00pm 32.6 32.2 18.8 44 9.0 N 19 30 10 16 1011.1 - 0.0
19/02:30pm 32.7 32.6 18.8 43 9.1 N 17 32 9 17 1011.3 - 0.0
19/02:00pm 33.1 33.5 19.9 45 8.8 N 17 28 9 15 1011.7 - 0.0
19/01:30pm 32.6 32.4 19.8 46 8.5 N 20 28 11 15 1012.3 1011.7 0.0
19/01:00pm 31.2 30.6 18.9 48 8.0 N 20 32 11 17 1012.8 - 0.0
19/12:30pm 33.0 32.3 16.4 37 10.5 ENE 15 28 8 15 1013.2 - 0.0
19/12:00pm 32.8 32.7 17.8 40 9.7 NE 15 24 8 13 1013.5 - 0.0
19/11:30am 31.3 31.9 20.3 52 7.3 N 17 24 9 13 1013.7 - 0.0
19/11:00am 31.8 33.3 18.0 43 8.9 WNW 7 15 4 8 1013.9 - 0.0
19/10:30am 31.8 32.4 16.9 40 9.4 E 9 15 5 8 1014.2 1013.6 0.0
19/10:00am 30.4 31.8 17.8 46 8.1 SSW 7 13 4 7 1014.2 - 0.0
19/09:30am 29.3 30.7 18.7 52 6.8 SSW 9 17 5 9 1014.2 - 0.0
19/09:00am 28.6 30.4 19.5 58 5.9 SSW 9 17 5 9 1014.1 - 0.0
19/08:30am 27.7 29.6 19.8 62 5.2 S 9 13 5 7 1013.8 - 0.0
19/08:00am 25.6 28.7 21.1 76 3.0 SE 6 9 3 5 1013.5 - 0.0
19/07:30am 24.0 27.4 21.7 87 1.5 SE 6 9 3 5 1013.0 1012.4 0.0
19/07:00am 22.1 26.3 20.9 93 0.8 CALM 0 0 0 0 1012.9 - 0.0
19/06:30am 21.8 24.8 20.8 94 0.7 SSE 6 7 3 4 1012.5 - 0.0
19/06:00am 22.1 25.2 21.1 94 0.7 S 6 7 3 4 1012.3 - 0.0
19/05:30am 22.1 24.9 20.4 90 1.1 S 6 6 3 3 1011.9 - 0.0
19/05:00am 22.6 25.7 21.4 93 0.8 S 7 9 4 5 1011.6 - 0.0
19/04:30am 22.1 24.8 20.7 92 0.9 S 7 7 4 4 1011.3 1010.7 0.0
19/04:00am 22.8 25.5 20.7 88 1.4 SSW 7 9 4 5 1011.1 - 0.0
19/03:30am 24.0 27.2 21.7 87 1.5 SSW 7 9 4 5 1011.1 - 0.0
19/03:00am 24.1 27.5 22.0 88 1.4 S 7 9 4 5 1011.1 - 0.0
19/02:30am 24.8 28.1 22.5 87 1.5 SW 9 11 5 6 1011.3 - 0.0
19/02:00am 24.9 28.0 22.2 85 1.8 SW 9 11 5 6 1011.5 - 0.0
19/01:30am 25.2 28.4 22.3 84 1.9 WSW 9 11 5 6 1011.8 1011.2 0.0
19/01:00am 25.2 28.5 22.5 85 1.8 WSW 9 13 5 7 1012.0 - 0.0
19/12:30am 25.4 28.8 22.7 85 1.8 WSW 9 15 5 8 1012.4 - 0.0
19/12:00am 25.3 28.9 22.4 84 2.0 WSW 7 11 4 6 1012.6 - 0.0
 
Date/Time
CST
Temp
°C
App
Temp
°C
Dew
Point
Rel
Hum
%
Delta-T
°C
Wind Press
QNH
hPa
Press
MSL
hPa
Rain
since 9 am
mm
Dir
 
Spd
km/h
Gust
km/h
Spd
kts
Gust
kts
18/11:30pm 24.6 28.8 21.7 84 1.9 W 2 6 1 3 1013.0 - 0.0
18/11:00pm 25.1 28.8 22.2 84 1.9 WNW 6 7 3 4 1013.1 - 0.0
18/10:30pm 25.0 28.4 21.7 82 2.2 W 6 7 3 4 1013.1 1012.5 0.0
18/10:00pm 24.8 29.0 20.9 79 2.6 CALM 0 0 0 0 1013.0 - 0.0
18/09:30pm 25.2 29.1 21.1 78 2.7 NNW 2 6 1 3 1012.9 - 0.0
18/09:00pm 25.8 29.2 21.7 78 2.7 NNW 6 9 3 5 1012.6 - 0.0
18/08:30pm 26.3 29.4 21.5 75 3.2 NNW 7 9 4 5 1012.4 - 0.0
18/08:00pm 26.5 29.6 21.0 72 3.6 N 6 9 3 5 1012.3 - 0.0
18/07:30pm 27.0 29.7 20.6 68 4.2 N 7 11 4 6 1011.9 1011.3 0.0
18/07:00pm 27.7 29.5 20.3 64 4.9 N 11 15 6 8 1011.6 - 0.0
18/06:30pm 28.3 29.3 19.5 59 5.7 N 13 22 7 12 1011.3 - 0.0
18/06:00pm 29.1 29.3 18.5 52 6.8 N 15 24 8 13 1010.9 - 0.0
18/05:30pm 29.6 30.0 19.0 53 6.9 N 15 22 8 12 1010.5 - 0.0
18/05:00pm 30.4 29.1 15.7 41 9.1 N 17 26 9 14 1010.3 - 0.0
18/04:30pm 30.5 30.0 17.9 47 8.1 NNW 17 28 9 15 1010.2 1009.6 0.0
18/04:00pm 31.0 31.1 18.4 47 8.1 N 15 22 8 12 1010.2 - 0.0
18/03:30pm 31.1 30.9 18.5 47 8.2 N 17 28 9 15 1010.2 - 0.0
18/03:00pm 31.5 31.1 18.8 46 8.3 N 19 32 10 17 1010.2 - 0.0
18/02:30pm 31.9 30.7 17.4 42 9.3 N 20 32 11 17 1010.5 - 0.0
18/02:00pm 32.9 30.5 14.5 33 11.3 NNW 20 28 11 15 1010.7 - 0.0
18/01:30pm 32.7 30.1 14.8 34 11.1 N 22 30 12 16 1011.1 1010.5 0.0
18/01:00pm 34.3 32.8 14.2 29 12.4 N 15 20 8 11 1011.7 - 0.0
18/12:30pm 35.1 33.9 11.5 24 14.0 NNE 9 19 5 10 1012.3 - 0.0
18/12:00pm 34.0 30.7 6.3 18 15.1 NNE 13 22 7 12 1012.7 - 0.0
18/11:30am 34.6 31.2 6.0 17 15.5 NE 13 20 7 11 1013.3 - 0.0
18/11:00am 33.7 31.6 9.7 23 13.8 E 11 19 6 10 1013.8 - 0.0
18/10:30am 32.6 31.4 11.7 28 12.3 E 9 15 5 8 1014.2 1013.6 0.0
18/10:00am 32.0 32.0 14.2 34 10.9 SSE 7 15 4 8 1014.3 - 0.0
18/09:30am 30.0 29.9 14.9 39 9.2 SSE 9 17 5 9 1014.3 - 0.0
18/09:00am 28.4 29.3 17.6 52 6.8 SE 9 11 5 6 1014.4 - 0.0
18/08:30am 26.9 29.0 19.3 63 4.9 SSE 7 11 4 6 1014.3 - 0.0
18/08:00am 25.0 28.0 20.9 78 2.7 SE 6 7 3 4 1013.9 - 0.0
18/07:30am 23.2 27.0 21.6 91 1.1 ESE 4 7 2 4 1013.5 1012.9 0.0
18/07:00am 21.3 24.3 20.8 97 0.3 SSE 6 7 3 4 1012.9 - 0.0
18/06:30am 21.3 24.1 20.8 97 0.3 S 7 7 4 4 1012.5 - 0.0
18/06:00am 21.6 24.4 20.9 96 0.5 S 7 9 4 5 1012.1 - 0.0
18/05:30am 21.7 24.4 20.7 94 0.6 S 7 9 4 5 1011.9 - 0.0
18/05:00am 22.2 24.9 20.7 91 1.0 SSW 7 11 4 6 1011.7 - 0.0
18/04:30am 23.5 25.9 20.8 85 1.8 S 9 11 5 6 1011.6 1011.0 0.0
18/04:00am 23.4 25.9 21.1 87 1.5 S 9 11 5 6 1011.5 - 0.0
18/03:30am 22.8 25.3 21.1 90 1.1 S 9 11 5 6 1011.5 - 0.0
18/03:00am 22.1 24.8 20.6 91 1.0 S 7 9 4 5 1011.6 - 0.0
18/02:30am 22.0 24.4 20.1 89 1.2 S 7 9 4 5 1011.7 - 0.0
18/02:00am 22.5 26.5 20.6 89 1.2 CALM 0 0 0 0 1011.8 - 0.0
18/01:30am 22.9 27.0 20.8 88 1.4 CALM 0 0 0 0 1012.1 1011.5 0.0
18/01:00am 22.6 26.5 20.3 87 1.5 CALM 0 0 0 0 1012.6 - 0.0
18/12:30am 22.8 26.3 19.6 82 2.1 CALM 0 0 0 0 1012.8 - 0.0
18/12:00am 23.2 26.7 19.6 80 2.3 CALM 0 0 0 0 1013.0 - 0.0
 
Date/Time
CST
Temp
°C
App
Temp
°C
Dew
Point
Rel
Hum
%
Delta-T
°C
Wind Press
QNH
hPa
Press
MSL
hPa
Rain
since 9 am
mm
Dir
 
Spd
km/h
Gust
km/h
Spd
kts
Gust
kts
17/11:30pm 22.9 26.2 19.1 79 2.4 CALM 0 0 0 0 1013.1 - 0.0
17/11:00pm 23.5 26.8 19.0 76 2.9 CALM 0 0 0 0 1013.1 - 0.0

Other Formats:

Comma delimited format used in spreadsheet applications
http://www.bom.gov.au/fwo/IDD60801/IDD60801.95101.axf

JavaScript Object Notation format (JSON) in row-major order
http://www.bom.gov.au/fwo/IDD60801/IDD60801.95101.json